createdAt,value
2018-12-08T00:00:17.419Z,8.46
2018-12-08T00:05:20.722Z,8.35
2018-12-08T00:10:23.998Z,8.37
2018-12-08T00:15:26.261Z,8.22
2018-12-08T00:20:28.391Z,8.10
2018-12-08T00:25:30.638Z,7.86
2018-12-08T00:30:44.894Z,7.58
2018-12-08T00:35:47.101Z,7.37
2018-12-08T00:40:56.500Z,7.38
2018-12-08T00:45:58.659Z,7.29
2018-12-08T00:51:00.734Z,7.19
2018-12-08T00:56:02.970Z,7.07
2018-12-08T01:01:05.242Z,7.13
2018-12-08T01:06:07.494Z,7.16
2018-12-08T01:11:16.708Z,7.06
2018-12-08T01:16:18.869Z,7.07
2018-12-08T01:21:21.026Z,6.92
2018-12-08T01:26:23.582Z,6.86
2018-12-08T01:31:25.967Z,6.66
2018-12-08T01:36:28.149Z,6.90
2018-12-08T01:41:30.445Z,6.93
2018-12-08T01:46:32.628Z,6.83
2018-12-08T01:51:34.802Z,6.68
2018-12-08T01:56:37.146Z,6.47
2018-12-08T02:01:39.298Z,6.41
2018-12-08T02:06:41.389Z,6.20
2018-12-08T02:11:43.462Z,6.07
2018-12-08T02:16:45.497Z,5.99
2018-12-08T02:21:47.870Z,5.77
2018-12-08T02:26:50.161Z,5.65
2018-12-08T02:31:52.427Z,5.50
2018-12-08T02:36:54.516Z,5.47
2018-12-08T02:41:57.037Z,5.33
2018-12-08T02:46:59.181Z,5.37
2018-12-08T02:52:01.233Z,5.47
2018-12-08T02:57:03.443Z,5.54
2018-12-08T03:02:12.692Z,5.56
2018-12-08T03:07:14.886Z,5.53
2018-12-08T03:12:17.722Z,5.49
2018-12-08T03:17:20.857Z,5.58
2018-12-08T03:22:22.909Z,5.54
2018-12-08T03:27:25.282Z,5.45
2018-12-08T03:32:27.572Z,5.45
2018-12-08T03:37:29.734Z,5.45
2018-12-08T03:42:32.021Z,5.48
2018-12-08T03:47:34.118Z,5.50
2018-12-08T03:52:36.306Z,5.27
2018-12-08T03:57:38.505Z,5.45
2018-12-08T04:02:40.697Z,5.37
2018-12-08T04:07:43.173Z,5.27
2018-12-08T04:12:45.489Z,5.32
2018-12-08T04:17:47.520Z,5.25
2018-12-08T04:22:49.581Z,5.12
2018-12-08T04:27:52.085Z,5.15
2018-12-08T04:32:54.145Z,5.03
2018-12-08T04:38:03.141Z,5.04
2018-12-08T04:43:07.334Z,4.92
2018-12-08T04:48:09.582Z,4.96
2018-12-08T04:53:12.410Z,5.08
2018-12-08T04:58:14.533Z,5.13
2018-12-08T05:03:16.761Z,4.99
2018-12-08T05:08:19.101Z,5.20
2018-12-08T05:13:22.149Z,5.21
2018-12-08T05:18:24.301Z,5.21
2018-12-08T05:23:26.352Z,5.21
2018-12-08T05:28:29.260Z,5.33
2018-12-08T05:33:31.429Z,5.54
2018-12-08T05:38:33.593Z,5.47
2018-12-08T05:43:35.917Z,5.41
2018-12-08T05:48:37.967Z,5.37
2018-12-08T05:53:40.021Z,5.36
2018-12-08T05:58:42.213Z,5.25
2018-12-08T06:03:44.470Z,5.22
2018-12-08T06:08:46.542Z,5.13
2018-12-08T06:13:48.761Z,5.05
2018-12-08T06:18:51.084Z,5.05
2018-12-08T06:23:53.387Z,5.31
2018-12-08T06:28:55.701Z,5.32
2018-12-08T06:33:57.991Z,5.11
2018-12-08T06:39:00.282Z,5.14
2018-12-08T06:44:02.752Z,5.34
2018-12-08T06:49:04.935Z,5.36
2018-12-08T06:54:07.126Z,5.26
2018-12-08T06:59:09.648Z,5.25
2018-12-08T07:04:11.829Z,5.18
2018-12-08T07:09:13.918Z,5.18
2018-12-08T07:14:17.139Z,5.23
2018-12-08T07:19:19.285Z,5.15
2018-12-08T07:24:21.352Z,5.04
2018-12-08T07:29:23.401Z,5.16
2018-12-08T07:34:25.707Z,5.21
2018-12-08T07:39:28.901Z,5.36
2018-12-08T07:44:30.993Z,5.51
2018-12-08T07:49:33.045Z,5.60
2018-12-08T07:54:35.225Z,5.84
2018-12-08T07:59:37.617Z,6.01
2018-12-08T08:04:39.909Z,6.16
2018-12-08T08:09:42.005Z,6.36
2018-12-08T08:14:44.077Z,6.44
2018-12-08T08:19:46.366Z,6.48
2018-12-08T08:24:48.553Z,6.43
2018-12-08T08:29:51.047Z,6.55
2018-12-08T08:34:56.167Z,6.57
2018-12-08T08:39:58.625Z,6.66
2018-12-08T08:45:00.777Z,6.69
2018-12-08T08:50:05.108Z,6.79
2018-12-08T08:55:07.733Z,6.79
2018-12-08T09:00:10.357Z,6.88
2018-12-08T09:05:12.933Z,6.94
2018-12-08T09:10:15.302Z,7.00
2018-12-08T09:15:17.571Z,6.96
2018-12-08T09:20:19.731Z,7.16
2018-12-08T09:25:22.575Z,7.07
2018-12-08T09:30:24.777Z,7.14
2018-12-08T09:35:26.836Z,7.21
2018-12-08T09:40:28.906Z,7.33
2018-12-08T09:45:31.358Z,7.34
2018-12-08T09:50:33.666Z,7.47
2018-12-08T09:55:35.747Z,7.52
2018-12-08T10:00:38.977Z,7.62
2018-12-08T10:05:41.150Z,7.55
2018-12-08T10:10:43.281Z,7.72
2018-12-08T10:15:45.609Z,7.73
2018-12-08T10:20:47.693Z,7.74
2018-12-08T10:25:49.798Z,7.76
2018-12-08T10:30:58.986Z,7.76
2018-12-08T10:36:01.173Z,7.81
2018-12-08T10:41:03.485Z,7.80
2018-12-08T10:46:05.678Z,7.91
2018-12-08T10:51:08.014Z,8.01
2018-12-08T10:56:13.038Z,8.13
2018-12-08T11:01:20.786Z,8.06
2018-12-08T11:06:23.101Z,8.19
2018-12-08T11:11:25.613Z,8.72
2018-12-08T11:16:27.895Z,9.08
2018-12-08T11:21:30.129Z,8.58
2018-12-08T11:26:32.341Z,8.60
2018-12-08T11:31:34.532Z,8.62
2018-12-08T11:36:36.721Z,8.72
2018-12-08T11:41:39.791Z,9.53
2018-12-08T11:46:42.601Z,9.36
2018-12-08T11:51:47.589Z,9.05
2018-12-08T11:56:49.870Z,8.97
2018-12-08T12:01:52.343Z,8.75
2018-12-08T12:06:55.063Z,8.99
2018-12-08T12:11:57.582Z,9.27
2018-12-08T12:16:59.813Z,9.38
2018-12-08T12:22:02.005Z,9.29
2018-12-08T12:27:04.284Z,9.00
2018-12-08T12:32:09.770Z,8.59
2018-12-08T12:37:12.057Z,8.46
2018-12-08T12:42:14.241Z,8.35
2018-12-08T12:47:16.461Z,8.30
2018-12-08T12:52:18.533Z,8.22
2018-12-08T12:57:20.709Z,8.26
2018-12-08T13:02:22.895Z,8.21
2018-12-08T13:07:25.083Z,8.21
2018-12-08T13:12:27.201Z,8.18
2018-12-08T13:17:29.447Z,8.23
2018-12-08T13:22:31.626Z,8.18
2018-12-08T13:27:33.681Z,8.26
2018-12-08T13:32:35.753Z,8.18
2018-12-08T13:37:37.817Z,7.87
2018-12-08T13:42:39.982Z,7.68
2018-12-08T13:47:42.709Z,7.61
2018-12-08T13:52:44.874Z,7.59
2018-12-08T13:57:47.076Z,7.61
2018-12-08T14:02:49.437Z,7.62
2018-12-08T14:07:51.517Z,7.62
2018-12-08T14:12:53.682Z,7.59
2018-12-08T14:17:56.081Z,7.68
2018-12-08T14:22:58.241Z,7.72
2018-12-08T14:33:36.133Z,7.79
2018-12-08T14:38:38.330Z,7.82
2018-12-08T14:43:40.608Z,7.82
2018-12-08T14:48:42.788Z,7.87
2018-12-08T14:53:45.257Z,7.83
2018-12-08T14:58:47.638Z,7.88
2018-12-08T15:03:49.954Z,7.86
2018-12-08T15:08:52.042Z,7.88
2018-12-08T15:13:54.214Z,7.86
2018-12-08T15:18:56.497Z,7.73
2018-12-08T15:23:58.557Z,7.65
2018-12-08T15:29:00.723Z,7.67
2018-12-08T15:34:03.430Z,7.83
2018-12-08T15:39:06.498Z,7.78
2018-12-08T15:44:10.200Z,7.73
2018-12-08T15:49:14.404Z,7.79
2018-12-08T15:54:16.689Z,7.81
2018-12-08T15:59:18.981Z,7.77
2018-12-08T16:04:21.185Z,7.83
2018-12-08T16:09:23.483Z,7.76
2018-12-08T16:14:25.573Z,7.65
2018-12-08T16:19:27.980Z,7.58
2018-12-08T16:24:30.066Z,7.34
2018-12-08T16:29:32.833Z,7.28
2018-12-08T16:34:35.145Z,7.15
2018-12-08T16:39:37.815Z,7.21
2018-12-08T16:44:40.130Z,7.30
2018-12-08T16:49:42.341Z,7.41
2018-12-08T16:54:44.877Z,7.35
2018-12-08T16:59:47.121Z,7.59
2018-12-08T17:04:49.313Z,7.67
2018-12-08T17:09:51.562Z,7.79
2018-12-08T17:14:53.854Z,7.92
2018-12-08T17:19:56.138Z,8.03
2018-12-08T17:24:58.198Z,8.07
2018-12-08T17:30:00.506Z,8.10
2018-12-08T17:35:03.071Z,8.09
2018-12-08T17:40:07.035Z,8.03
2018-12-08T17:45:09.329Z,8.04
2018-12-08T17:50:11.609Z,8.02
2018-12-08T17:55:13.905Z,8.14
2018-12-08T18:00:16.384Z,7.92
2018-12-08T18:05:18.669Z,7.85
2018-12-08T18:10:21.233Z,7.76
2018-12-08T18:15:23.517Z,7.58
2018-12-08T18:20:25.561Z,7.69
2018-12-08T18:25:27.668Z,7.68
2018-12-08T18:30:29.845Z,7.74
2018-12-08T18:35:32.126Z,7.70
2018-12-08T18:40:34.303Z,7.66
2018-12-08T18:45:36.470Z,7.53
2018-12-08T18:50:38.632Z,7.40
2018-12-08T18:55:40.821Z,7.41
2018-12-08T19:00:43.185Z,7.51
2018-12-08T19:05:45.465Z,7.33
2018-12-08T19:10:47.669Z,7.22
2018-12-08T19:15:49.998Z,7.16
2018-12-08T19:20:52.261Z,7.14
2018-12-08T19:25:54.457Z,7.21
2018-12-08T19:30:56.672Z,7.23
2018-12-08T19:36:05.812Z,7.11
2018-12-08T19:41:07.989Z,7.09
2018-12-08T19:46:10.289Z,6.96
2018-12-08T19:51:12.575Z,6.96
2018-12-08T19:56:14.673Z,6.84
2018-12-08T20:01:17.774Z,6.87
2018-12-08T20:06:20.141Z,6.83
2018-12-08T20:11:22.349Z,7.00
2018-12-08T20:16:24.514Z,6.82
2018-12-08T20:21:26.785Z,7.12
2018-12-08T20:26:29.137Z,6.96
2018-12-08T20:31:31.317Z,6.84
2018-12-08T20:36:33.593Z,6.77
2018-12-08T20:41:35.834Z,6.78
2018-12-08T20:46:38.154Z,6.91
2018-12-08T20:51:40.473Z,7.08
2018-12-08T20:56:43.436Z,7.29
2018-12-08T21:01:45.610Z,7.38
2018-12-08T21:06:49.078Z,7.41
2018-12-08T21:11:52.161Z,7.19
2018-12-08T21:16:54.321Z,7.13
2018-12-08T21:21:56.482Z,7.15
2018-12-08T21:26:58.911Z,7.38
2018-12-08T21:32:01.093Z,7.62
2018-12-08T21:37:03.389Z,7.72
2018-12-08T21:42:05.613Z,7.90
2018-12-08T21:47:07.776Z,7.85
2018-12-08T21:52:10.574Z,8.01
2018-12-08T21:57:12.858Z,7.97
2018-12-08T22:02:15.106Z,8.09
2018-12-08T22:07:17.355Z,8.05
2018-12-08T22:12:19.541Z,8.21
2018-12-08T22:17:21.825Z,8.21
2018-12-08T22:22:24.013Z,8.26
2018-12-08T22:27:26.165Z,8.31
2018-12-08T22:32:28.334Z,8.30
2018-12-08T22:37:30.403Z,8.44
2018-12-08T22:42:32.458Z,8.44
2018-12-08T22:47:34.514Z,8.45
2018-12-08T22:52:36.934Z,8.38
2018-12-08T22:57:39.552Z,8.45
2018-12-08T23:02:42.034Z,8.45
2018-12-08T23:07:44.334Z,8.48
2018-12-08T23:12:46.406Z,8.41
2018-12-08T23:17:48.940Z,8.05
2018-12-08T23:22:52.016Z,7.86
2018-12-08T23:27:54.301Z,7.77
2018-12-08T23:32:56.473Z,7.70
2018-12-08T23:37:58.765Z,7.60
2018-12-08T23:43:00.930Z,18.42
2018-12-08T23:48:03.202Z,10.35
2018-12-08T23:53:05.479Z,7.13
2018-12-08T23:58:07.643Z,7.07
